Terminal Aerodrome Forecast
Issued by NWS

Home | Current Version | Previous Version | Graphics & Text | Print | Product List | Glossary On
Versions: 1 2 3 4 5 6 7 8 9 10 11 12 13 14 15
000
FTUS43 KPAH 231700
TAFCGI
TAF
KCGI 231738Z 2318/2418 22004KT P6SM FEW080 SCT150
     FM240000 VRB03KT P6SM SCT250
     FM240800 00000KT 3SM BR SCT250
     FM241400 VRB03KT P6SM SCT250=

USA.gov is the U.S. government's official web portal to all federal, state and local government web resources and services.